sensor_id;sensor_type;location;lat;lon;timestamp;pressure;altitude;pressure_sealevel;temperature;humidity
59650;BME280;46162;57.568;25.814;2023-06-04T00:00:06;101142.94;;;5.45;100.00
59650;BME280;46162;57.568;25.814;2023-06-04T00:02:37;101145.38;;;5.48;100.00
59650;BME280;46162;57.568;25.814;2023-06-04T00:05:06;101145.16;;;5.51;100.00
59650;BME280;46162;57.568;25.814;2023-06-04T00:07:35;101150.19;;;5.55;100.00
59650;BME280;46162;57.568;25.814;2023-06-04T00:10:04;101149.25;;;5.56;100.00
59650;BME280;46162;57.568;25.814;2023-06-04T00:12:33;101152.66;;;5.58;100.00
59650;BME280;46162;57.568;25.814;2023-06-04T00:15:02;101145.50;;;5.59;100.00
59650;BME280;46162;57.568;25.814;2023-06-04T00:17:31;101147.09;;;5.62;100.00
59650;BME280;46162;57.568;25.814;2023-06-04T00:20:01;101146.88;;;5.65;100.00
59650;BME280;46162;57.568;25.814;2023-06-04T00:22:30;101142.28;;;5.67;100.00
59650;BME280;46162;57.568;25.814;2023-06-04T00:24:58;101137.53;;;5.70;100.00
59650;BME280;46162;57.568;25.814;2023-06-04T00:27:27;101146.22;;;5.74;100.00
59650;BME280;46162;57.568;25.814;2023-06-04T00:29:55;101139.81;;;5.76;100.00
59650;BME280;46162;57.568;25.814;2023-06-04T00:32:24;101152.22;;;5.77;100.00
59650;BME280;46162;57.568;25.814;2023-06-04T00:34:54;101139.66;;;5.78;100.00
59650;BME280;46162;57.568;25.814;2023-06-04T00:37:28;101133.13;;;5.82;100.00
59650;BME280;46162;57.568;25.814;2023-06-04T00:39:57;101136.44;;;5.86;100.00
59650;BME280;46162;57.568;25.814;2023-06-04T00:42:26;101139.63;;;5.91;100.00
59650;BME280;46162;57.568;25.814;2023-06-04T00:44:54;101138.78;;;5.90;100.00
59650;BME280;46162;57.568;25.814;2023-06-04T00:47:24;101144.06;;;5.92;100.00
59650;BME280;46162;57.568;25.814;2023-06-04T00:49:56;101142.22;;;5.92;100.00
59650;BME280;46162;57.568;25.814;2023-06-04T00:52:27;101141.25;;;5.93;100.00
59650;BME280;46162;57.568;25.814;2023-06-04T00:54:56;101147.50;;;5.94;100.00
59650;BME280;46162;57.568;25.814;2023-06-04T00:57:25;101138.50;;;5.95;100.00
59650;BME280;46162;57.568;25.814;2023-06-04T00:59:54;101144.59;;;5.97;100.00
59650;BME280;46162;57.568;25.814;2023-06-04T01:02:23;101144.50;;;5.98;100.00
59650;BME280;46162;57.568;25.814;2023-06-04T01:04:58;101137.94;;;6.02;100.00
59650;BME280;46162;57.568;25.814;2023-06-04T01:07:31;101133.22;;;6.06;100.00
59650;BME280;46162;57.568;25.814;2023-06-04T01:09:59;101131.16;;;6.10;100.00
59650;BME280;46162;57.568;25.814;2023-06-04T01:12:28;101138.88;;;6.14;100.00
59650;BME280;46162;57.568;25.814;2023-06-04T01:14:57;101129.75;;;6.17;100.00
59650;BME280;46162;57.568;25.814;2023-06-04T01:17:33;101135.72;;;6.20;100.00
59650;BME280;46162;57.568;25.814;2023-06-04T01:23:11;101144.28;;;6.25;100.00
59650;BME280;46162;57.568;25.814;2023-06-04T01:25:42;101146.97;;;6.25;100.00
59650;BME280;46162;57.568;25.814;2023-06-04T01:28:17;101141.09;;;6.20;100.00
59650;BME280;46162;57.568;25.814;2023-06-04T01:30:47;101146.44;;;6.20;100.00
59650;BME280;46162;57.568;25.814;2023-06-04T01:33:19;101138.22;;;6.23;100.00
59650;BME280;46162;57.568;25.814;2023-06-04T01:35:48;101138.06;;;6.25;100.00
59650;BME280;46162;57.568;25.814;2023-06-04T01:38:18;101137.22;;;6.24;100.00
59650;BME280;46162;57.568;25.814;2023-06-04T01:40:47;101133.56;;;6.25;100.00
59650;BME280;46162;57.568;25.814;2023-06-04T01:43:16;101126.25;;;6.28;100.00
59650;BME280;46162;57.568;25.814;2023-06-04T01:45:45;101126.91;;;6.31;100.00
59650;BME280;46162;57.568;25.814;2023-06-04T01:48:14;101139.09;;;6.35;100.00
59650;BME280;46162;57.568;25.814;2023-06-04T01:50:44;101127.28;;;6.38;100.00
59650;BME280;46162;57.568;25.814;2023-06-04T01:53:13;101132.44;;;6.41;100.00
59650;BME280;46162;57.568;25.814;2023-06-04T01:55:43;101129.63;;;6.42;100.00
59650;BME280;46162;57.568;25.814;2023-06-04T01:58:11;101121.47;;;6.44;100.00
59650;BME280;46162;57.568;25.814;2023-06-04T02:00:40;101119.53;;;6.46;100.00
59650;BME280;46162;57.568;25.814;2023-06-04T02:03:09;101125.53;;;6.50;100.00
59650;BME280;46162;57.568;25.814;2023-06-04T02:05:40;101125.53;;;6.50;100.00
59650;BME280;46162;57.568;25.814;2023-06-04T02:08:08;101122.75;;;6.51;100.00
59650;BME280;46162;57.568;25.814;2023-06-04T02:10:38;101120.81;;;6.53;100.00
59650;BME280;46162;57.568;25.814;2023-06-04T02:13:08;101125.94;;;6.56;100.00
59650;BME280;46162;57.568;25.814;2023-06-04T02:15:37;101124.00;;;6.58;100.00
59650;BME280;46162;57.568;25.814;2023-06-04T02:18:12;101117.53;;;6.61;100.00
59650;BME280;46162;57.568;25.814;2023-06-04T02:20:44;101112.78;;;6.64;100.00
59650;BME280;46162;57.568;25.814;2023-06-04T02:23:14;101110.09;;;6.64;100.00
59650;BME280;46162;57.568;25.814;2023-06-04T02:25:43;101110.59;;;6.70;100.00
59650;BME280;46162;57.568;25.814;2023-06-04T02:28:14;101110.59;;;6.70;100.00
59650;BME280;46162;57.568;25.814;2023-06-04T02:30:44;101113.78;;;6.75;100.00
59650;BME280;46162;57.568;25.814;2023-06-04T02:33:14;101115.53;;;6.76;100.00
59650;BME280;46162;57.568;25.814;2023-06-04T02:35:43;101121.00;;;6.74;100.00
59650;BME280;46162;57.568;25.814;2023-06-04T02:38:12;101119.81;;;6.78;100.00
59650;BME280;46162;57.568;25.814;2023-06-04T02:40:42;101119.06;;;6.76;100.00
59650;BME280;46162;57.568;25.814;2023-06-04T02:43:11;101113.59;;;6.78;100.00
59650;BME280;46162;57.568;25.814;2023-06-04T02:45:41;101117.97;;;6.79;100.00
59650;BME280;46162;57.568;25.814;2023-06-04T02:48:10;101111.75;;;6.78;100.00
59650;BME280;46162;57.568;25.814;2023-06-04T02:50:38;101118.56;;;6.82;100.00
59650;BME280;46162;57.568;25.814;2023-06-04T02:53:09;101120.41;;;6.82;100.00
59650;BME280;46162;57.568;25.814;2023-06-04T02:55:38;101122.47;;;6.78;100.00
59650;BME280;46162;57.568;25.814;2023-06-04T02:58:07;101125.16;;;6.78;100.00
59650;BME280;46162;57.568;25.814;2023-06-04T03:00:36;101117.13;;;6.78;100.00
59650;BME280;46162;57.568;25.814;2023-06-04T03:03:06;101116.97;;;6.80;100.00
59650;BME280;46162;57.568;25.814;2023-06-04T03:05:35;101118.81;;;6.79;100.00
59650;BME280;46162;57.568;25.814;2023-06-04T03:08:08;101117.97;;;6.79;100.00
59650;BME280;46162;57.568;25.814;2023-06-04T03:10:38;101118.06;;;6.77;100.00
59650;BME280;46162;57.568;25.814;2023-06-04T03:13:07;101121.63;;;6.78;100.00
59650;BME280;46162;57.568;25.814;2023-06-04T03:15:36;101111.75;;;6.78;100.00
59650;BME280;46162;57.568;25.814;2023-06-04T03:18:08;101108.22;;;6.78;100.00
59650;BME280;46162;57.568;25.814;2023-06-04T03:20:37;101112.94;;;6.74;100.00
59650;BME280;46162;57.568;25.814;2023-06-04T03:23:06;101112.25;;;6.83;100.00
59650;BME280;46162;57.568;25.814;2023-06-04T03:25:35;101118.22;;;6.87;100.00
59650;BME280;46162;57.568;25.814;2023-06-04T03:28:03;101113.22;;;6.82;100.00
59650;BME280;46162;57.568;25.814;2023-06-04T03:30:32;101119.09;;;6.87;100.00
59650;BME280;46162;57.568;25.814;2023-06-04T03:33:03;101100.91;;;6.91;100.00
59650;BME280;46162;57.568;25.814;2023-06-04T03:35:34;101108.72;;;6.94;100.00
59650;BME280;46162;57.568;25.814;2023-06-04T03:38:03;101097.16;;;6.94;100.00
59650;BME280;46162;57.568;25.814;2023-06-04T03:40:33;101100.44;;;6.97;100.00
59650;BME280;46162;57.568;25.814;2023-06-04T03:43:03;101097.41;;;7.02;100.00
59650;BME280;46162;57.568;25.814;2023-06-04T03:45:32;101100.22;;;7.00;100.00
59650;BME280;46162;57.568;25.814;2023-06-04T03:48:01;101091.53;;;6.97;100.00
59650;BME280;46162;57.568;25.814;2023-06-04T03:50:31;101085.06;;;6.99;100.00
59650;BME280;46162;57.568;25.814;2023-06-04T03:53:02;101084.84;;;7.02;100.00
59650;BME280;46162;57.568;25.814;2023-06-04T03:55:33;101077.75;;;7.01;100.00
59650;BME280;46162;57.568;25.814;2023-06-04T03:58:03;101077.75;;;7.01;100.00
59650;BME280;46162;57.568;25.814;2023-06-04T04:00:32;101078.50;;;7.03;100.00
59650;BME280;46162;57.568;25.814;2023-06-04T04:03:02;101086.56;;;7.03;100.00
59650;BME280;46162;57.568;25.814;2023-06-04T04:05:31;101079.97;;;7.07;100.00
59650;BME280;46162;57.568;25.814;2023-06-04T04:07:59;101074.22;;;7.12;100.00
59650;BME280;46162;57.568;25.814;2023-06-04T04:10:33;101077.53;;;7.16;100.00
59650;BME280;46162;57.568;25.814;2023-06-04T04:13:03;101074.50;;;7.20;100.00
59650;BME280;46162;57.568;25.814;2023-06-04T04:15:36;101074.00;;;7.15;100.00
59650;BME280;46162;57.568;25.814;2023-06-04T04:18:05;101070.72;;;7.23;100.00
59650;BME280;46162;57.568;25.814;2023-06-04T04:20:36;101070.97;;;7.20;100.00
59650;BME280;46162;57.568;25.814;2023-06-04T04:23:08;101069.63;;;7.25;100.00
59650;BME280;46162;57.568;25.814;2023-06-04T04:25:40;101065.09;;;7.26;100.00
59650;BME280;46162;57.568;25.814;2023-06-04T04:28:11;101059.47;;;7.29;100.00
59650;BME280;46162;57.568;25.814;2023-06-04T04:30:40;101044.34;;;7.28;100.00
59650;BME280;46162;57.568;25.814;2023-06-04T04:33:10;101048.50;;;7.32;100.00
59650;BME280;46162;57.568;25.814;2023-06-04T04:35:45;101046.53;;;7.34;100.00
59650;BME280;46162;57.568;25.814;2023-06-04T04:38:19;101042.63;;;7.38;100.00
59650;BME280;46162;57.568;25.814;2023-06-04T04:41:02;101044.09;;;7.42;100.00
59650;BME280;46162;57.568;25.814;2023-06-04T04:43:32;101037.97;;;7.51;100.00
59650;BME280;46162;57.568;25.814;2023-06-04T04:46:21;101036.16;;;7.52;100.00
59650;BME280;46162;57.568;25.814;2023-06-04T04:48:51;101037.50;;;7.58;100.00
59650;BME280;46162;57.568;25.814;2023-06-04T04:51:20;101033.44;;;7.63;100.00
59650;BME280;46162;57.568;25.814;2023-06-04T04:53:51;101029.19;;;7.72;100.00
59650;BME280;46162;57.568;25.814;2023-06-04T04:56:24;101023.81;;;7.72;100.00
59650;BME280;46162;57.568;25.814;2023-06-04T04:58:54;101030.50;;;7.78;100.00
59650;BME280;46162;57.568;25.814;2023-06-04T05:01:23;101019.63;;;7.79;100.00
59650;BME280;46162;57.568;25.814;2023-06-04T05:03:53;101027.06;;;7.75;100.00
59650;BME280;46162;57.568;25.814;2023-06-04T05:06:22;101033.06;;;7.79;100.00
59650;BME280;46162;57.568;25.814;2023-06-04T05:08:51;101026.44;;;7.83;100.00
59650;BME280;46162;57.568;25.814;2023-06-04T05:11:20;101023.66;;;7.85;100.00
59650;BME280;46162;57.568;25.814;2023-06-04T05:13:51;101017.16;;;7.87;100.00
59650;BME280;46162;57.568;25.814;2023-06-04T05:16:19;101018.84;;;7.88;100.00
59650;BME280;46162;57.568;25.814;2023-06-04T05:18:50;101014.22;;;7.90;100.00
59650;BME280;46162;57.568;25.814;2023-06-04T05:21:23;101012.72;;;7.97;100.00
59650;BME280;46162;57.568;25.814;2023-06-04T05:24:00;101019.56;;;8.02;100.00
59650;BME280;46162;57.568;25.814;2023-06-04T05:26:33;101010.84;;;8.09;100.00
59650;BME280;46162;57.568;25.814;2023-06-04T05:29:10;101000.94;;;8.10;100.00
59650;BME280;46162;57.568;25.814;2023-06-04T05:31:42;101002.16;;;8.17;100.00
59650;BME280;46162;57.568;25.814;2023-06-04T05:34:13;101008.00;;;8.22;100.00
59650;BME280;46162;57.568;25.814;2023-06-04T05:36:45;101007.47;;;8.28;100.00
59650;BME280;46162;57.568;25.814;2023-06-04T05:39:14;101012.47;;;8.33;100.00
59650;BME280;46162;57.568;25.814;2023-06-04T05:41:53;101014.03;;;8.35;100.00
59650;BME280;46162;57.568;25.814;2023-06-04T05:44:23;101014.75;;;8.37;100.00
59650;BME280;46162;57.568;25.814;2023-06-04T05:46:52;101009.16;;;8.40;100.00
59650;BME280;46162;57.568;25.814;2023-06-04T05:49:21;101010.03;;;8.41;100.00
59650;BME280;46162;57.568;25.814;2023-06-04T05:51:53;101011.59;;;8.44;100.00
59650;BME280;46162;57.568;25.814;2023-06-04T05:54:22;101014.16;;;8.45;100.00
59650;BME280;46162;57.568;25.814;2023-06-04T05:56:51;101014.28;;;8.44;100.00
59650;BME280;46162;57.568;25.814;2023-06-04T05:59:19;101011.59;;;8.44;100.00
59650;BME280;46162;57.568;25.814;2023-06-04T06:01:50;101015.88;;;8.46;100.00
59650;BME280;46162;57.568;25.814;2023-06-04T06:04:18;101019.69;;;8.44;100.00
59650;BME280;46162;57.568;25.814;2023-06-04T06:06:47;101015.41;;;8.41;100.00
59650;BME280;46162;57.568;25.814;2023-06-04T06:09:16;101012.84;;;8.39;100.00
59650;BME280;46162;57.568;25.814;2023-06-04T06:11:45;101010.16;;;8.39;100.00
59650;BME280;46162;57.568;25.814;2023-06-04T06:14:14;101014.53;;;8.40;100.00
59650;BME280;46162;57.568;25.814;2023-06-04T06:16:43;101019.69;;;8.44;100.00
59650;BME280;46162;57.568;25.814;2023-06-04T06:19:13;101031.16;;;8.46;100.00
59650;BME280;46162;57.568;25.814;2023-06-04T06:21:42;101027.38;;;8.48;100.00
59650;BME280;46162;57.568;25.814;2023-06-04T06:24:12;101036.88;;;8.52;100.00
59650;BME280;46162;57.568;25.814;2023-06-04T06:26:41;101037.72;;;8.53;100.00
59650;BME280;46162;57.568;25.814;2023-06-04T06:29:12;101046.72;;;8.63;100.00
59650;BME280;46162;57.568;25.814;2023-06-04T06:31:40;101045.84;;;8.63;100.00
59650;BME280;46162;57.568;25.814;2023-06-04T06:34:09;101050.28;;;8.64;100.00
59650;BME280;46162;57.568;25.814;2023-06-04T06:36:39;101054.31;;;8.58;100.00
59650;BME280;46162;57.568;25.814;2023-06-04T06:39:08;101055.13;;;8.49;100.00
59650;BME280;46162;57.568;25.814;2023-06-04T06:41:37;101051.69;;;8.47;100.00
59650;BME280;46162;57.568;25.814;2023-06-04T06:44:10;101046.81;;;8.40;100.00
59650;BME280;46162;57.568;25.814;2023-06-04T06:46:39;101043.63;;;8.35;100.00
59650;BME280;46162;57.568;25.814;2023-06-04T06:49:07;101048.03;;;8.36;100.00
59650;BME280;46162;57.568;25.814;2023-06-04T06:51:36;101038.00;;;8.38;100.00
59650;BME280;46162;57.568;25.814;2023-06-04T06:54:08;101036.06;;;8.40;100.00
59650;BME280;46162;57.568;25.814;2023-06-04T06:56:37;101027.00;;;8.42;100.00
59650;BME280;46162;57.568;25.814;2023-06-04T06:59:06;101023.94;;;8.46;100.00
59650;BME280;46162;57.568;25.814;2023-06-04T07:01:35;101006.81;;;8.47;100.00
59650;BME280;46162;57.568;25.814;2023-06-04T07:04:03;100997.88;;;8.47;100.00
59650;BME280;46162;57.568;25.814;2023-06-04T07:06:32;100990.81;;;8.46;100.00
59650;BME280;46162;57.568;25.814;2023-06-04T07:09:01;100989.94;;;8.45;100.00
59650;BME280;46162;57.568;25.814;2023-06-04T07:11:31;100994.47;;;8.45;100.00
59650;BME280;46162;57.568;25.814;2023-06-04T07:14:00;100987.13;;;8.47;100.00
59650;BME280;46162;57.568;25.814;2023-06-04T07:16:30;100976.94;;;8.50;100.00
59650;BME280;46162;57.568;25.814;2023-06-04T07:19:01;100982.66;;;8.57;100.00
59650;BME280;46162;57.568;25.814;2023-06-04T07:21:29;100971.09;;;8.66;100.00
59650;BME280;46162;57.568;25.814;2023-06-04T07:23:58;100975.41;;;8.78;100.00
59650;BME280;46162;57.568;25.814;2023-06-04T07:26:27;100966.28;;;8.91;100.00
59650;BME280;46162;57.568;25.814;2023-06-04T07:29:02;100967.63;;;9.06;100.00
59650;BME280;46162;57.568;25.814;2023-06-04T07:31:31;100976.75;;;9.24;100.00
59650;BME280;46162;57.568;25.814;2023-06-04T07:33:59;100978.34;;;9.37;100.00
59650;BME280;46162;57.568;25.814;2023-06-04T07:36:28;100971.63;;;9.52;100.00
59650;BME280;46162;57.568;25.814;2023-06-04T07:38:58;100973.19;;;9.74;100.00
59650;BME280;46162;57.568;25.814;2023-06-04T07:41:27;100973.91;;;9.86;100.00
59650;BME280;46162;57.568;25.814;2023-06-04T07:43:55;100971.25;;;9.96;100.00
59650;BME280;46162;57.568;25.814;2023-06-04T07:46:26;100978.06;;;10.00;100.00
59650;BME280;46162;57.568;25.814;2023-06-04T07:48:54;100975.22;;;10.01;100.00
59650;BME280;46162;57.568;25.814;2023-06-04T07:51:23;100974.53;;;9.99;100.00
59650;BME280;46162;57.568;25.814;2023-06-04T07:53:52;100972.50;;;10.01;100.00
59650;BME280;46162;57.568;25.814;2023-06-04T07:56:21;100978.78;;;10.02;100.00
59650;BME280;46162;57.568;25.814;2023-06-04T07:58:50;100976.91;;;9.93;100.00
59650;BME280;46162;57.568;25.814;2023-06-04T08:01:19;100985.72;;;9.85;100.00
59650;BME280;46162;57.568;25.814;2023-06-04T08:03:50;100992.25;;;9.82;100.00
59650;BME280;46162;57.568;25.814;2023-06-04T08:06:19;100984.69;;;9.76;100.00
59650;BME280;46162;57.568;25.814;2023-06-04T08:08:48;100994.47;;;9.67;100.00
59650;BME280;46162;57.568;25.814;2023-06-04T08:11:17;100993.03;;;9.63;100.00
59650;BME280;46162;57.568;25.814;2023-06-04T08:13:46;101006.09;;;9.58;100.00
59650;BME280;46162;57.568;25.814;2023-06-04T08:16:15;101011.59;;;9.57;100.00
59650;BME280;46162;57.568;25.814;2023-06-04T08:18:44;101022.09;;;9.50;100.00
59650;BME280;46162;57.568;25.814;2023-06-04T08:21:14;101022.63;;;9.44;100.00
59650;BME280;46162;57.568;25.814;2023-06-04T08:23:44;101025.72;;;9.39;100.00
59650;BME280;46162;57.568;25.814;2023-06-04T08:26:14;101022.47;;;9.36;100.00
59650;BME280;46162;57.568;25.814;2023-06-04T08:28:43;101022.75;;;9.33;100.00
59650;BME280;46162;57.568;25.814;2023-06-04T08:31:12;101032.94;;;9.29;100.00
59650;BME280;46162;57.568;25.814;2023-06-04T08:33:41;101027.41;;;9.31;100.00
59650;BME280;46162;57.568;25.814;2023-06-04T08:36:10;101021.91;;;9.32;100.00
59650;BME280;46162;57.568;25.814;2023-06-04T08:38:40;101018.53;;;9.40;100.00
59650;BME280;46162;57.568;25.814;2023-06-04T08:41:15;101014.88;;;9.51;100.00
59650;BME280;46162;57.568;25.814;2023-06-04T08:43:44;101023.50;;;9.54;100.00
59650;BME280;46162;57.568;25.814;2023-06-04T08:46:15;101017.16;;;9.55;100.00
59650;BME280;46162;57.568;25.814;2023-06-04T08:48:44;101026.50;;;9.51;100.00
59650;BME280;46162;57.568;25.814;2023-06-04T08:51:13;101023.22;;;9.47;100.00
59650;BME280;46162;57.568;25.814;2023-06-04T08:53:43;101022.38;;;9.47;100.00
59650;BME280;46162;57.568;25.814;2023-06-04T08:56:17;101017.28;;;9.54;100.00
59650;BME280;46162;57.568;25.814;2023-06-04T08:58:48;101018.84;;;9.56;100.00
59650;BME280;46162;57.568;25.814;2023-06-04T09:01:18;101015.88;;;9.59;100.00
59650;BME280;46162;57.568;25.814;2023-06-04T09:03:47;101018.72;;;9.58;100.00
59650;BME280;46162;57.568;25.814;2023-06-04T09:06:16;101016.75;;;9.60;100.00
59650;BME280;46162;57.568;25.814;2023-06-04T09:08:46;101021.00;;;9.62;100.00
59650;BME280;46162;57.568;25.814;2023-06-04T09:11:27;101016.78;;;9.69;100.00
59650;BME280;46162;57.568;25.814;2023-06-04T09:13:59;101019.19;;;9.73;100.00
59650;BME280;46162;57.568;25.814;2023-06-04T09:16:29;101020.63;;;9.77;100.00
59650;BME280;46162;57.568;25.814;2023-06-04T09:19:04;101008.25;;;9.74;100.00
59650;BME280;46162;57.568;25.814;2023-06-04T09:21:33;101011.09;;;9.73;100.00
59650;BME280;46162;57.568;25.814;2023-06-04T09:24:03;101017.75;;;9.68;100.00
59650;BME280;46162;57.568;25.814;2023-06-04T09:26:32;101012.22;;;9.70;100.00
59650;BME280;46162;57.568;25.814;2023-06-04T09:29:00;101017.47;;;9.72;100.00
59650;BME280;46162;57.568;25.814;2023-06-04T09:31:29;101019.91;;;9.75;100.00
59650;BME280;46162;57.568;25.814;2023-06-04T09:34:04;101018.91;;;9.76;100.00
59650;BME280;46162;57.568;25.814;2023-06-04T09:36:33;101024.16;;;9.77;100.00
59650;BME280;46162;57.568;25.814;2023-06-04T09:39:14;101022.44;;;9.76;100.00
59650;BME280;46162;57.568;25.814;2023-06-04T09:41:43;101027.00;;;9.76;100.00
59650;BME280;46162;57.568;25.814;2023-06-04T09:44:12;101012.66;;;9.75;100.00
59650;BME280;46162;57.568;25.814;2023-06-04T09:46:41;101018.34;;;9.72;100.00
59650;BME280;46162;57.568;25.814;2023-06-04T09:49:10;101017.22;;;9.75;100.00
59650;BME280;46162;57.568;25.814;2023-06-04T09:51:47;101013.50;;;9.76;100.00
59650;BME280;46162;57.568;25.814;2023-06-04T09:54:17;101017.47;;;9.81;100.00
59650;BME280;46162;57.568;25.814;2023-06-04T09:56:46;101013.13;;;9.90;100.00
59650;BME280;46162;57.568;25.814;2023-06-04T09:59:15;101013.97;;;9.90;100.00
59650;BME280;46162;57.568;25.814;2023-06-04T10:01:45;101010.00;;;9.95;100.00
59650;BME280;46162;57.568;25.814;2023-06-04T10:04:15;101012.09;;;9.91;100.00
59650;BME280;46162;57.568;25.814;2023-06-04T10:06:44;101022.34;;;9.87;100.00
59650;BME280;46162;57.568;25.814;2023-06-04T10:09:13;101010.97;;;9.84;100.00
59650;BME280;46162;57.568;25.814;2023-06-04T10:11:46;101013.66;;;9.84;100.00
59650;BME280;46162;57.568;25.814;2023-06-04T10:14:18;101008.56;;;9.90;100.00
59650;BME280;46162;57.568;25.814;2023-06-04T10:16:49;101002.91;;;10.03;100.00
59650;BME280;46162;57.568;25.814;2023-06-04T10:19:18;101008.31;;;10.23;100.00
59650;BME280;46162;57.568;25.814;2023-06-04T10:21:47;101005.78;;;10.41;100.00
59650;BME280;46162;57.568;25.814;2023-06-04T10:24:16;101010.47;;;10.48;100.00
59650;BME280;46162;57.568;25.814;2023-06-04T10:26:49;101010.75;;;10.45;100.00
59650;BME280;46162;57.568;25.814;2023-06-04T10:29:20;101004.91;;;10.50;100.00
59650;BME280;46162;57.568;25.814;2023-06-04T10:31:53;101000.09;;;10.53;100.00
59650;BME280;46162;57.568;25.814;2023-06-04T10:34:22;101000.38;;;10.50;100.00
59650;BME280;46162;57.568;25.814;2023-06-04T10:36:52;101007.63;;;10.50;100.00
59650;BME280;46162;57.568;25.814;2023-06-04T10:39:27;101011.88;;;10.52;100.00
59650;BME280;46162;57.568;25.814;2023-06-04T10:42:02;101017.28;;;10.52;100.00
59650;BME280;46162;57.568;25.814;2023-06-04T10:44:31;101022.38;;;10.46;100.00
59650;BME280;46162;57.568;25.814;2023-06-04T10:47:00;101020.81;;;10.43;100.00
59650;BME280;46162;57.568;25.814;2023-06-04T10:49:29;101020.16;;;10.41;100.00
59650;BME280;46162;57.568;25.814;2023-06-04T10:52:09;101019.84;;;10.44;100.00
59650;BME280;46162;57.568;25.814;2023-06-04T10:54:38;101019.56;;;10.47;100.00
59650;BME280;46162;57.568;25.814;2023-06-04T10:57:12;101016.00;;;10.57;100.00
59650;BME280;46162;57.568;25.814;2023-06-04T10:59:41;101014.44;;;10.64;100.00
59650;BME280;46162;57.568;25.814;2023-06-04T11:02:10;101025.25;;;10.64;100.00
59650;BME280;46162;57.568;25.814;2023-06-04T11:04:39;101026.81;;;10.66;100.00
59650;BME280;46162;57.568;25.814;2023-06-04T11:07:09;101017.13;;;10.64;100.00
59650;BME280;46162;57.568;25.814;2023-06-04T11:09:47;101020.81;;;10.63;100.00
59650;BME280;46162;57.568;25.814;2023-06-04T11:12:18;101026.22;;;10.63;100.00
59650;BME280;46162;57.568;25.814;2023-06-04T11:14:58;101023.94;;;10.68;100.00
59650;BME280;46162;57.568;25.814;2023-06-04T11:17:28;101027.53;;;10.59;100.00
59650;BME280;46162;57.568;25.814;2023-06-04T11:19:57;101027.38;;;10.50;100.00
59650;BME280;46162;57.568;25.814;2023-06-04T11:22:28;101017.00;;;10.46;100.00
59650;BME280;46162;57.568;25.814;2023-06-04T11:24:57;101029.09;;;10.51;100.00
59650;BME280;46162;57.568;25.814;2023-06-04T11:27:33;101030.47;;;10.55;100.00
59650;BME280;46162;57.568;25.814;2023-06-04T11:30:04;101019.81;;;10.73;100.00
59650;BME280;46162;57.568;25.814;2023-06-04T11:32:35;101015.09;;;10.75;100.00
59650;BME280;46162;57.568;25.814;2023-06-04T11:35:05;101014.69;;;10.80;100.00
59650;BME280;46162;57.568;25.814;2023-06-04T11:37:34;101015.28;;;10.74;100.00
59650;BME280;46162;57.568;25.814;2023-06-04T11:40:14;101017.56;;;10.69;100.00
59650;BME280;46162;57.568;25.814;2023-06-04T11:42:44;101025.94;;;10.66;100.00
59650;BME280;46162;57.568;25.814;2023-06-04T11:45:15;101031.34;;;10.66;100.00
59650;BME280;46162;57.568;25.814;2023-06-04T11:47:45;101044.16;;;10.64;100.00
59650;BME280;46162;57.568;25.814;2023-06-04T11:50:15;101046.56;;;10.57;100.00
59650;BME280;46162;57.568;25.814;2023-06-04T11:52:44;101043.72;;;10.59;100.00
59650;BME280;46162;57.568;25.814;2023-06-04T11:55:13;101049.38;;;10.55;100.00
59650;BME280;46162;57.568;25.814;2023-06-04T11:57:41;101047.41;;;10.58;100.00
59650;BME280;46162;57.568;25.814;2023-06-04T12:00:13;101044.84;;;10.56;100.00
59650;BME280;46162;57.568;25.814;2023-06-04T12:02:49;101047.13;;;10.51;100.00
59650;BME280;46162;57.568;25.814;2023-06-04T12:05:20;101046.25;;;10.50;100.00
59650;BME280;46162;57.568;25.814;2023-06-04T12:07:50;101055.38;;;10.49;100.00
59650;BME280;46162;57.568;25.814;2023-06-04T12:10:20;101057.78;;;10.52;100.00
59650;BME280;46162;57.568;25.814;2023-06-04T12:12:54;101058.50;;;10.54;100.00
59650;BME280;46162;57.568;25.814;2023-06-04T12:15:24;101064.00;;;10.72;100.00
59650;BME280;46162;57.568;25.814;2023-06-04T12:17:53;101067.41;;;10.84;100.00
59650;BME280;46162;57.568;25.814;2023-06-04T12:20:35;101063.16;;;10.91;100.00
59650;BME280;46162;57.568;25.814;2023-06-04T12:23:05;101064.81;;;11.02;100.00
59650;BME280;46162;57.568;25.814;2023-06-04T12:25:35;101067.66;;;11.10;100.00
59650;BME280;46162;57.568;25.814;2023-06-04T12:28:05;101061.78;;;11.15;100.00
59650;BME280;46162;57.568;25.814;2023-06-04T12:30:39;101069.03;;;11.24;100.00
59650;BME280;46162;57.568;25.814;2023-06-04T12:33:10;101059.75;;;11.36;100.00
59650;BME280;46162;57.568;25.814;2023-06-04T12:35:38;101062.56;;;11.45;100.00
59650;BME280;46162;57.568;25.814;2023-06-04T12:38:07;101058.25;;;11.52;100.00
59650;BME280;46162;57.568;25.814;2023-06-04T12:40:36;101054.25;;;11.83;100.00
59650;BME280;46162;57.568;25.814;2023-06-04T12:43:05;101060.59;;;12.02;100.00
59650;BME280;46162;57.568;25.814;2023-06-04T12:45:34;101054.44;;;12.27;100.00
59650;BME280;46162;57.568;25.814;2023-06-04T12:48:05;101062.69;;;12.26;100.00
59650;BME280;46162;57.568;25.814;2023-06-04T12:50:34;101057.13;;;12.63;100.00
59650;BME280;46162;57.568;25.814;2023-06-04T12:53:02;101056.16;;;12.46;100.00
59650;BME280;46162;57.568;25.814;2023-06-04T12:55:31;101055.84;;;12.50;100.00